createdAt,value
2022-08-25T07:03:27.184Z,10.93
2022-08-25T07:05:57.434Z,12.77
2022-08-25T07:08:25.541Z,9.40
2022-08-25T07:10:53.480Z,9.20
2022-08-25T07:13:23.408Z,9.07
2022-08-25T07:15:56.018Z,11.25
2022-08-25T07:18:24.776Z,11.70
2022-08-25T07:20:57.075Z,9.85
2022-08-25T07:23:26.733Z,9.57
2022-08-25T07:25:55.331Z,10.95
2022-08-25T07:28:25.282Z,7.00
2022-08-25T07:30:53.702Z,8.05
2022-08-25T07:33:22.069Z,7.20
2022-08-25T07:35:49.959Z,8.30
2022-08-25T07:38:19.813Z,6.20
2022-08-25T07:40:57.078Z,11.43
2022-08-25T07:43:25.390Z,7.00
2022-08-25T07:45:53.658Z,6.53
2022-08-25T07:48:21.783Z,6.25
2022-08-25T07:50:51.343Z,7.65
2022-08-25T07:53:19.234Z,8.02
2022-08-25T07:55:47.460Z,13.05
2022-08-25T07:58:16.317Z,14.55
2022-08-25T08:00:48.776Z,9.93
2022-08-25T08:03:44.581Z,13.32
2022-08-25T08:06:18.241Z,8.93
2022-08-25T08:08:49.887Z,10.73
2022-08-25T08:11:24.194Z,8.80
2022-08-25T08:13:52.913Z,7.93
2022-08-25T08:16:24.527Z,12.30
2022-08-25T08:18:53.339Z,11.05
2022-08-25T08:21:24.551Z,15.25
2022-08-25T08:26:48.125Z,10.27
2022-08-25T08:29:17.075Z,14.23
2022-08-25T08:31:48.785Z,10.25
2022-08-25T08:34:18.728Z,11.93
2022-08-25T08:36:46.647Z,11.32
2022-08-25T08:43:02.914Z,9.75
2022-08-25T08:45:40.567Z,12.48
2022-08-25T08:48:31.972Z,17.42
2022-08-25T08:51:16.818Z,8.70
2022-08-25T08:54:01.543Z,18.42
2022-08-25T08:56:39.222Z,15.77
2022-08-25T08:59:30.548Z,13.90
2022-08-25T09:02:01.379Z,11.88
2022-08-25T09:04:45.870Z,25.30
2022-08-25T09:07:20.702Z,12.88
2022-08-25T09:09:52.208Z,17.52
2022-08-25T09:12:36.298Z,10.10
2022-08-25T09:16:04.108Z,19.17
2022-08-25T09:18:56.289Z,24.58
2022-08-25T09:21:42.574Z,25.80
2022-08-25T09:24:56.205Z,34.47
2022-08-25T09:28:09.200Z,52.97
2022-08-25T09:31:01.637Z,41.70
2022-08-25T09:33:33.521Z,48.60
2022-08-25T09:36:06.396Z,46.05
2022-08-25T09:38:38.394Z,36.42
2022-08-25T09:41:08.351Z,31.95
2022-08-25T09:43:42.170Z,32.38
2022-08-25T09:46:27.029Z,37.38
2022-08-25T09:48:57.688Z,27.90
2022-08-25T09:51:42.374Z,25.35
2022-08-25T09:54:13.754Z,33.35
2022-08-25T09:56:58.321Z,24.83
2022-08-25T09:59:35.901Z,23.75
2022-08-25T10:02:23.967Z,27.48
2022-08-25T10:04:53.224Z,22.90
2022-08-25T10:07:32.570Z,22.55
2022-08-25T10:10:04.395Z,21.35
2022-08-25T10:12:43.130Z,23.77
2022-08-25T10:15:29.784Z,26.58
2022-08-25T10:18:21.422Z,23.75
2022-08-25T10:21:04.825Z,23.92
2022-08-25T10:23:41.435Z,23.23
2022-08-25T10:26:18.400Z,24.90
2022-08-25T10:29:03.390Z,24.55
2022-08-25T10:31:41.356Z,28.00
2022-08-25T10:34:31.567Z,23.50
2022-08-25T10:37:23.898Z,27.45
2022-08-25T10:40:21.952Z,22.62
2022-08-25T10:43:23.751Z,26.67
2022-08-25T10:46:03.187Z,23.25
2022-08-25T10:48:57.619Z,24.60
2022-08-25T10:51:55.704Z,24.12
2022-08-25T10:54:45.545Z,20.30
2022-08-25T10:57:29.563Z,32.22
2022-08-25T11:00:00.685Z,27.13
2022-08-25T11:02:47.521Z,35.65
2022-08-25T11:05:30.815Z,27.35
2022-08-25T11:08:14.762Z,22.08
2022-08-25T11:10:53.371Z,23.23
2022-08-25T11:13:32.499Z,19.67
2022-08-25T11:16:19.623Z,22.52
2022-08-25T11:19:05.636Z,19.00
2022-08-25T11:22:03.431Z,21.27
2022-08-25T11:24:41.915Z,19.48
2022-08-25T11:27:24.493Z,19.15
2022-08-25T11:30:10.092Z,22.10
2022-08-25T11:32:40.716Z,25.08
2022-08-25T11:35:12.635Z,23.60
2022-08-25T11:38:25.663Z,22.45
2022-08-25T11:41:37.103Z,16.00
2022-08-25T11:44:53.031Z,13.62
2022-08-25T11:47:39.803Z,14.93
2022-08-25T11:50:23.933Z,11.12
2022-08-25T11:53:12.528Z,12.98
2022-08-25T11:55:40.792Z,12.75
2022-08-25T11:58:21.256Z,10.80
2022-08-25T12:00:50.769Z,13.68
2022-08-25T12:03:37.232Z,14.80
2022-08-25T12:06:16.160Z,10.27
2022-08-25T12:09:00.618Z,10.27
2022-08-25T12:11:52.293Z,11.55
2022-08-25T12:14:28.267Z,11.15
2022-08-25T12:16:56.665Z,11.95
2022-08-25T12:19:36.974Z,15.88
2022-08-25T12:22:05.944Z,11.88
2022-08-25T12:24:47.629Z,15.65
2022-08-25T12:30:22.340Z,16.50
2022-08-25T12:33:12.123Z,10.88
2022-08-25T12:35:41.965Z,11.35
2022-08-25T12:38:16.080Z,12.98
2022-08-25T12:40:45.325Z,10.30
2022-08-25T12:43:37.475Z,9.50
2022-08-25T12:46:26.006Z,10.75
2022-08-25T12:49:00.661Z,13.10
2022-08-25T12:51:48.453Z,12.40
2022-08-25T12:54:18.934Z,12.30
2022-08-25T12:57:29.664Z,11.00
2022-08-25T12:59:59.832Z,13.43
2022-08-25T13:03:05.511Z,14.48
2022-08-25T13:05:58.776Z,13.95
2022-08-25T13:08:36.884Z,10.98
2022-08-25T13:11:13.522Z,13.85
2022-08-25T13:14:02.272Z,12.80
2022-08-25T13:16:30.947Z,12.20
2022-08-25T13:18:59.815Z,10.68
2022-08-25T13:21:37.113Z,12.33
2022-08-25T13:24:18.181Z,14.13
2022-08-25T13:26:57.443Z,16.95
2022-08-25T13:29:29.717Z,9.07
2022-08-25T13:32:09.265Z,10.50
2022-08-25T13:34:42.520Z,13.75
2022-08-25T13:37:31.199Z,13.68
2022-08-25T13:40:13.161Z,12.90
2022-08-25T13:42:50.870Z,10.73
2022-08-25T13:45:31.876Z,10.63
2022-08-25T13:48:00.021Z,9.82
2022-08-25T13:50:31.471Z,11.30
2022-08-25T13:53:11.660Z,11.32
2022-08-25T13:55:52.061Z,13.45
2022-08-25T13:58:38.709Z,15.05
2022-08-25T14:01:22.655Z,10.52
2022-08-25T14:04:25.953Z,11.45
2022-08-25T14:07:09.604Z,12.27
2022-08-25T14:09:49.817Z,10.07
2022-08-25T14:12:46.758Z,9.70
2022-08-25T14:15:17.811Z,10.55
2022-08-25T14:18:01.070Z,12.43
2022-08-25T14:20:32.095Z,10.70
2022-08-25T14:23:22.469Z,8.57
2022-08-25T14:25:56.832Z,10.13
2022-08-25T14:28:29.451Z,11.25
2022-08-25T14:31:02.644Z,8.80
2022-08-25T14:33:44.136Z,11.07
2022-08-25T14:36:20.964Z,9.10
2022-08-25T14:38:54.729Z,8.40
2022-08-25T14:41:27.808Z,8.85
2022-08-25T14:43:55.737Z,9.48
2022-08-25T14:46:30.921Z,8.32
2022-08-25T14:49:01.613Z,10.82
2022-08-25T14:51:33.230Z,11.45
2022-08-25T14:54:04.759Z,11.15
2022-08-25T14:56:33.786Z,8.77
2022-08-25T14:59:02.887Z,10.57
2022-08-25T15:01:33.351Z,11.55
2022-08-25T15:04:06.563Z,11.55
2022-08-25T15:06:37.723Z,8.75
2022-08-25T15:09:11.616Z,11.48
2022-08-25T15:11:45.712Z,11.48
2022-08-25T15:14:18.641Z,11.88
2022-08-25T15:16:58.063Z,11.57
2022-08-25T15:19:27.646Z,16.60
2022-08-25T15:21:58.040Z,15.52
2022-08-25T15:24:32.946Z,9.13
2022-08-25T15:27:05.979Z,9.40
2022-08-25T15:29:38.604Z,8.48
2022-08-25T15:32:08.702Z,17.62
2022-08-25T15:34:37.051Z,12.65
2022-08-25T15:37:14.716Z,11.12
2022-08-25T15:39:44.785Z,10.68
2022-08-25T15:42:14.250Z,10.73
2022-08-25T15:44:43.171Z,11.15
2022-08-25T15:47:23.307Z,10.25
2022-08-25T15:50:02.897Z,8.95
2022-08-25T15:52:46.151Z,10.70
2022-08-25T15:55:15.306Z,8.63
2022-08-25T15:57:43.891Z,12.13
2022-08-25T16:00:13.710Z,9.65
2022-08-25T16:02:46.235Z,10.15
2022-08-25T16:05:16.236Z,10.05
2022-08-25T16:07:46.266Z,9.50
2022-08-25T16:10:20.945Z,11.88
2022-08-25T16:12:49.936Z,13.45
2022-08-25T16:15:17.934Z,14.02
2022-08-25T16:17:52.243Z,18.87
2022-08-25T16:20:21.174Z,25.70
2022-08-25T16:22:51.328Z,28.58
2022-08-25T16:25:20.400Z,20.30
2022-08-25T16:27:49.681Z,20.08
2022-08-25T16:30:18.044Z,18.98
2022-08-25T16:32:47.192Z,13.68
2022-08-25T16:35:15.487Z,24.75
2022-08-25T16:40:31.737Z,27.37
2022-08-25T16:42:59.645Z,20.48
2022-08-25T16:45:30.491Z,37.60
2022-08-25T16:47:58.914Z,34.43
2022-08-25T16:50:26.919Z,32.97
2022-08-25T16:53:14.947Z,25.08
2022-08-25T16:55:43.561Z,36.78
2022-08-25T16:58:13.360Z,29.05
2022-08-25T17:00:41.829Z,35.70
2022-08-25T17:03:13.421Z,39.37
2022-08-25T17:05:43.237Z,36.15
2022-08-25T17:08:30.535Z,31.40
2022-08-25T17:11:15.146Z,36.67
2022-08-25T17:13:47.256Z,39.97
2022-08-25T17:16:19.849Z,39.55
2022-08-25T17:18:48.799Z,33.58
2022-08-25T17:21:23.808Z,27.73
2022-08-25T17:23:54.782Z,28.67
2022-08-25T17:26:27.974Z,28.75
2022-08-25T17:29:01.269Z,26.73
2022-08-25T17:31:30.715Z,35.55
2022-08-25T17:33:59.727Z,36.85
2022-08-25T17:36:28.279Z,32.58
2022-08-25T17:38:57.049Z,32.13
2022-08-25T17:41:26.306Z,37.33
2022-08-25T17:43:54.195Z,38.83
2022-08-25T17:46:22.189Z,37.17
2022-08-25T17:48:50.904Z,52.47
2022-08-25T17:51:19.479Z,40.33
2022-08-25T17:53:48.617Z,35.60
2022-08-25T17:56:19.440Z,35.53
2022-08-25T17:58:47.987Z,52.13
2022-08-25T18:01:23.012Z,49.55
2022-08-25T18:03:51.791Z,46.83
2022-08-25T18:06:20.893Z,45.97
2022-08-25T18:08:50.276Z,47.62
2022-08-25T18:11:23.951Z,42.15
2022-08-25T18:13:54.020Z,46.92
2022-08-25T18:16:23.708Z,41.42
2022-08-25T18:18:54.121Z,47.83
2022-08-25T18:21:24.912Z,41.50
2022-08-25T18:23:59.169Z,37.70
2022-08-25T18:26:28.128Z,42.28
2022-08-25T18:28:56.223Z,46.45
2022-08-25T18:31:24.252Z,39.28
2022-08-25T18:33:52.592Z,44.00
2022-08-25T18:36:21.256Z,35.30
2022-08-25T18:39:10.776Z,41.55
2022-08-25T18:41:45.049Z,50.75
2022-08-25T18:44:15.638Z,56.78
2022-08-25T18:46:45.261Z,57.17
2022-08-25T18:49:16.039Z,55.67
2022-08-25T18:51:46.208Z,63.60
2022-08-25T18:54:22.816Z,68.85
2022-08-25T18:56:53.990Z,66.07
2022-08-25T18:59:23.572Z,64.82
2022-08-25T19:01:54.336Z,61.20
2022-08-25T19:04:28.509Z,59.63
2022-08-25T19:07:01.145Z,53.38
2022-08-25T19:09:30.674Z,52.33
2022-08-25T19:11:59.337Z,45.72
2022-08-25T19:14:28.005Z,50.47
2022-08-25T19:16:58.279Z,46.28
2022-08-25T19:19:26.415Z,45.20
2022-08-25T19:21:54.983Z,40.08
2022-08-25T19:24:23.045Z,39.03
2022-08-25T19:26:54.791Z,38.72
2022-08-25T19:29:24.338Z,48.15
2022-08-25T19:31:52.554Z,70.37
2022-08-25T19:34:30.335Z,65.25
2022-08-25T19:37:02.077Z,63.38
2022-08-25T19:39:34.347Z,68.12
2022-08-25T19:42:03.237Z,68.87
2022-08-25T19:44:32.268Z,65.55
2022-08-25T19:47:00.795Z,60.30
2022-08-25T19:49:35.013Z,61.55
2022-08-25T19:52:10.395Z,62.30
2022-08-25T19:54:46.024Z,47.45
2022-08-25T19:57:27.836Z,57.05
2022-08-25T20:00:17.154Z,40.85
2022-08-25T20:02:45.802Z,54.65
2022-08-25T20:05:15.550Z,53.28
2022-08-25T20:07:54.178Z,63.08
2022-08-25T20:10:25.042Z,57.22
2022-08-25T20:12:55.199Z,52.72
2022-08-25T20:15:23.606Z,26.52
2022-08-25T20:17:51.641Z,23.67
2022-08-25T20:20:32.588Z,64.65
2022-08-25T20:23:22.815Z,60.97
2022-08-25T20:25:51.119Z,61.97
2022-08-25T20:28:19.293Z,54.65
2022-08-25T20:30:47.254Z,70.93
2022-08-25T20:33:22.819Z,70.90
2022-08-25T20:35:52.936Z,67.70
2022-08-25T20:38:21.701Z,66.62
2022-08-25T20:40:49.607Z,62.55
2022-08-25T20:43:18.205Z,63.13
2022-08-25T20:45:49.816Z,53.08
2022-08-25T20:48:17.907Z,53.50
2022-08-25T20:50:45.778Z,58.35
2022-08-25T20:53:26.278Z,49.17
2022-08-25T20:55:54.233Z,60.15
2022-08-25T20:58:22.094Z,59.85
2022-08-25T21:00:51.959Z,56.45
2022-08-25T21:03:20.669Z,58.70
2022-08-25T21:05:48.558Z,48.00
2022-08-25T21:08:25.718Z,60.40
2022-08-25T21:10:56.359Z,60.92
2022-08-25T21:13:24.358Z,54.33
2022-08-25T21:15:52.617Z,64.65
2022-08-25T21:18:20.375Z,60.75
2022-08-25T21:20:48.628Z,44.20
2022-08-25T21:23:16.942Z,58.90
2022-08-25T21:25:44.900Z,59.28
2022-08-25T21:28:12.865Z,61.17
2022-08-25T21:30:45.625Z,65.80
2022-08-25T21:33:15.742Z,70.97
2022-08-25T21:35:44.260Z,72.18
2022-08-25T21:38:14.783Z,61.92
2022-08-25T21:40:45.020Z,59.47
2022-08-25T21:43:13.468Z,59.38
2022-08-25T21:45:46.595Z,67.70
2022-08-25T21:48:15.585Z,59.40
2022-08-25T21:50:43.482Z,67.10
2022-08-25T21:53:11.987Z,65.28
2022-08-25T21:55:42.095Z,58.92
2022-08-25T21:58:10.180Z,61.47
2022-08-25T22:00:38.283Z,60.38
2022-08-25T22:03:07.718Z,61.28
2022-08-25T22:05:37.523Z,59.47
2022-08-25T22:08:05.852Z,66.65
2022-08-25T22:10:34.024Z,66.05
2022-08-25T22:13:04.261Z,58.90
2022-08-25T22:15:32.230Z,67.03
2022-08-25T22:18:00.761Z,61.80
2022-08-25T22:20:29.000Z,57.25
2022-08-25T22:22:57.005Z,55.47
2022-08-25T22:25:25.395Z,42.62
2022-08-25T22:27:57.032Z,56.72
2022-08-25T22:30:29.399Z,56.03
2022-08-25T22:32:59.077Z,56.63
2022-08-25T22:35:28.604Z,59.70
2022-08-25T22:37:56.442Z,63.83
2022-08-25T22:40:27.660Z,54.72
2022-08-25T22:42:57.404Z,66.70
2022-08-25T22:45:27.287Z,67.03
2022-08-25T22:47:55.717Z,70.35
2022-08-25T22:50:24.522Z,68.97
2022-08-25T22:52:53.562Z,69.20
2022-08-25T22:55:22.038Z,67.30
2022-08-25T22:57:50.498Z,57.13
2022-08-25T23:00:22.761Z,64.20
2022-08-25T23:02:53.593Z,63.83
2022-08-25T23:05:21.711Z,64.20
2022-08-25T23:07:50.871Z,63.97
2022-08-25T23:10:21.068Z,65.53
2022-08-25T23:12:48.910Z,58.67
2022-08-25T23:15:16.723Z,59.35
2022-08-25T23:17:44.963Z,62.90
2022-08-25T23:20:31.267Z,42.95
2022-08-25T23:22:59.507Z,72.00
2022-08-25T23:25:27.554Z,58.28
2022-08-25T23:27:55.384Z,64.00
2022-08-25T23:30:27.269Z,58.63
2022-08-25T23:32:58.257Z,60.30
2022-08-25T23:35:27.049Z,59.75
2022-08-25T23:37:58.132Z,62.60
2022-08-25T23:40:28.045Z,49.72
2022-08-25T23:42:55.865Z,65.47
2022-08-25T23:45:23.767Z,51.03
2022-08-25T23:47:54.048Z,69.50
2022-08-25T23:50:22.491Z,69.78
2022-08-25T23:52:50.325Z,71.20
2022-08-25T23:55:18.632Z,70.32
2022-08-25T23:57:46.744Z,81.95
